createdAt,value
2018-10-19T00:01:18.653Z,101767.39
2018-10-19T00:03:47.149Z,101774.80
2018-10-19T00:06:15.697Z,101769.55
2018-10-19T00:08:44.319Z,101772.22
2018-10-19T00:11:13.009Z,101769.59
2018-10-19T00:13:41.552Z,101767.81
2018-10-19T00:16:10.026Z,101759.48
2018-10-19T00:18:39.582Z,101763.86
2018-10-19T00:21:08.181Z,101760.80
2018-10-19T00:23:36.990Z,101756.80
2018-10-19T00:26:06.013Z,101757.20
2018-10-19T00:28:34.691Z,101752.83
2018-10-19T00:31:03.243Z,101758.95
2018-10-19T00:33:31.941Z,101755.11
2018-10-19T00:36:00.501Z,101759.50
2018-10-19T00:38:29.181Z,101745.02
2018-10-19T00:40:57.673Z,101752.05
2018-10-19T00:43:26.611Z,101749.42
2018-10-19T00:45:55.226Z,101745.13
2018-10-19T00:48:23.734Z,101750.86
2018-10-19T00:50:53.029Z,101749.50
2018-10-19T00:53:21.739Z,101747.75
2018-10-19T00:55:50.276Z,101749.95
2018-10-19T00:58:19.337Z,101742.56
2018-10-19T01:00:47.977Z,101742.08
2018-10-19T01:03:16.560Z,101739.08
2018-10-19T01:05:45.024Z,101737.34
2018-10-19T01:08:13.907Z,101736.03
2018-10-19T01:10:42.457Z,101730.36
2018-10-19T01:13:11.437Z,101737.03
2018-10-19T01:15:40.074Z,101737.41
2018-10-19T01:18:16.074Z,101737.83
2018-10-19T01:20:44.785Z,101737.88
2018-10-19T01:23:13.335Z,101729.56
2018-10-19T01:25:42.821Z,101727.40
2018-10-19T01:28:15.527Z,101734.42
2018-10-19T01:30:44.146Z,101730.11
2018-10-19T01:33:13.374Z,101726.64
2018-10-19T01:35:42.034Z,101724.84
2018-10-19T01:38:10.513Z,101732.27
2018-10-19T01:40:39.064Z,101731.42
2018-10-19T01:43:07.560Z,101731.84
2018-10-19T01:45:36.253Z,101731.42
2018-10-19T01:48:04.778Z,101737.10
2018-10-19T01:50:33.941Z,101731.37
2018-10-19T01:53:02.570Z,101739.69
2018-10-19T01:55:30.980Z,101739.63
2018-10-19T01:57:59.605Z,101739.57
2018-10-19T02:00:28.669Z,101739.14
2018-10-19T02:02:57.243Z,101732.99
2018-10-19T02:05:25.692Z,101732.15
2018-10-19T02:07:54.290Z,101740.58
2018-10-19T02:10:22.866Z,101744.57
2018-10-19T02:12:51.472Z,101747.21
2018-10-19T02:15:20.651Z,101757.31
2018-10-19T02:17:49.152Z,101756.41
2018-10-19T02:20:17.807Z,101754.69
2018-10-19T02:22:46.468Z,101743.69
2018-10-19T02:25:15.625Z,101745.89
2018-10-19T02:27:44.420Z,101741.89
2018-10-19T02:30:12.911Z,101748.89
2018-10-19T02:32:41.509Z,101749.84
2018-10-19T02:35:10.196Z,101744.57
2018-10-19T02:37:38.680Z,101748.11
2018-10-19T02:40:09.092Z,101745.48
2018-10-19T02:42:38.899Z,101744.16
2018-10-19T02:45:08.465Z,101744.20
2018-10-19T02:47:37.146Z,101747.32
2018-10-19T02:50:06.698Z,101750.78
2018-10-19T02:52:35.256Z,101750.00
2018-10-19T02:55:04.280Z,101751.33
2018-10-19T02:57:33.516Z,101754.95
2018-10-19T03:00:02.060Z,101755.80
2018-10-19T03:02:31.000Z,101754.47
2018-10-19T03:04:59.528Z,101761.05
2018-10-19T03:07:28.049Z,101757.95
2018-10-19T03:09:56.701Z,101759.27
2018-10-19T03:12:25.365Z,101748.27
2018-10-19T03:14:54.629Z,101748.27
2018-10-19T03:17:23.316Z,101758.33
2018-10-19T03:19:52.033Z,101756.12
2018-10-19T03:22:20.604Z,101755.70
2018-10-19T03:24:49.489Z,101749.59
2018-10-19T03:27:18.559Z,101753.58
2018-10-19T03:29:47.050Z,101757.59
2018-10-19T03:32:15.795Z,101752.75
2018-10-19T03:34:44.505Z,101757.11
2018-10-19T03:37:14.162Z,101753.58
2018-10-19T03:39:42.600Z,101756.22
2018-10-19T03:42:11.227Z,101755.80
2018-10-19T03:44:39.685Z,101758.05
2018-10-19T03:47:08.351Z,101756.33
2018-10-19T03:49:36.862Z,101759.84
2018-10-19T03:52:05.722Z,101758.13
2018-10-19T03:54:34.233Z,101760.33
2018-10-19T03:57:02.897Z,101760.33
2018-10-19T03:59:32.017Z,101762.07
2018-10-19T04:02:00.985Z,101759.44
2018-10-19T04:04:29.487Z,101762.53
2018-10-19T04:06:58.775Z,101766.95
2018-10-19T04:09:27.497Z,101759.52
2018-10-19T04:11:55.982Z,101764.33
2018-10-19T04:14:24.735Z,101760.33
2018-10-19T04:16:53.226Z,101761.64
2018-10-19T04:19:21.773Z,101762.07
2018-10-19T04:21:50.264Z,101760.38
2018-10-19T04:24:18.977Z,101770.91
2018-10-19T04:26:47.466Z,101763.48
2018-10-19T04:29:16.269Z,101767.48
2018-10-19T04:31:45.547Z,101759.16
2018-10-19T04:34:14.191Z,101760.47
2018-10-19T04:36:42.724Z,101760.91
2018-10-19T04:39:11.493Z,101753.44
2018-10-19T04:41:39.957Z,101758.27
2018-10-19T04:44:09.202Z,101753.48
2018-10-19T04:46:38.431Z,101750.00
2018-10-19T04:49:06.946Z,101753.95
2018-10-19T04:51:36.348Z,101766.25
2018-10-19T04:54:05.246Z,101756.67
2018-10-19T04:56:33.930Z,101758.47
2018-10-19T04:59:02.602Z,101763.73
2018-10-19T05:01:31.055Z,101765.88
2018-10-19T05:03:59.830Z,101764.57
2018-10-19T05:06:28.674Z,101769.83
2018-10-19T05:08:58.846Z,101772.00
2018-10-19T05:11:27.474Z,101773.36
2018-10-19T05:13:56.823Z,101771.20
2018-10-19T05:16:25.291Z,101779.55
2018-10-19T05:18:53.950Z,101780.91
2018-10-19T05:21:22.515Z,101782.22
2018-10-19T05:23:51.011Z,101776.97
2018-10-19T05:26:19.831Z,101779.64
2018-10-19T05:28:48.428Z,101777.44
2018-10-19T05:31:17.021Z,101777.89
2018-10-19T05:33:45.626Z,101777.89
2018-10-19T05:36:14.382Z,101783.16
2018-10-19T05:38:43.021Z,101787.52
2018-10-19T05:41:11.812Z,101783.16
2018-10-19T05:43:41.486Z,101783.16
2018-10-19T05:46:11.604Z,101789.73
2018-10-19T05:48:40.360Z,101787.48
2018-10-19T05:51:09.656Z,101780.02
2018-10-19T05:53:38.442Z,101786.63
2018-10-19T05:56:07.841Z,101780.95
2018-10-19T05:58:37.355Z,101782.27
2018-10-19T06:01:06.248Z,101790.16
2018-10-19T06:03:35.070Z,101787.09
2018-10-19T06:06:03.746Z,101786.63
2018-10-19T06:08:32.999Z,101787.56
2018-10-19T06:11:01.818Z,101784.98
2018-10-19T06:13:30.711Z,101777.98
2018-10-19T06:15:59.344Z,101791.09
2018-10-19T06:18:28.146Z,101797.66
2018-10-19T06:20:59.956Z,101799.40
2018-10-19T06:23:28.634Z,101804.66
2018-10-19T06:25:57.827Z,101794.61
2018-10-19T06:28:26.425Z,101800.28
2018-10-19T06:30:54.903Z,101807.71
2018-10-19T06:33:23.425Z,101806.86
2018-10-19T06:35:52.064Z,101802.91
2018-10-19T06:38:20.691Z,101806.82
2018-10-19T06:40:49.221Z,101809.91
2018-10-19T06:43:17.822Z,101813.86
2018-10-19T06:45:47.650Z,101816.44
2018-10-19T06:48:16.446Z,101809.45
2018-10-19T06:50:45.879Z,101805.08
2018-10-19T06:53:14.560Z,101806.39
2018-10-19T06:55:43.221Z,101814.70
2018-10-19T06:58:12.526Z,101817.33
2018-10-19T07:00:41.148Z,101818.61
2018-10-19T07:03:10.088Z,101822.98
2018-10-19T07:05:38.971Z,101819.03
2018-10-19T07:08:07.669Z,101819.03
2018-10-19T07:10:36.310Z,101815.94
2018-10-19T07:13:04.832Z,101816.83
2018-10-19T07:15:33.455Z,101812.03
2018-10-19T07:18:02.846Z,101811.65
2018-10-19T07:20:31.656Z,101810.80
2018-10-19T07:23:00.396Z,101807.75
2018-10-19T07:25:29.026Z,101808.28
2018-10-19T07:27:57.671Z,101800.91
2018-10-19T07:30:26.186Z,101805.77
2018-10-19T07:32:54.982Z,101810.60
2018-10-19T07:35:23.715Z,101811.48
2018-10-19T07:37:52.278Z,101816.31
2018-10-19T07:40:20.973Z,101822.03
2018-10-19T07:42:49.759Z,101827.29
2018-10-19T07:45:18.578Z,101829.48
2018-10-19T07:47:47.960Z,101828.56
2018-10-19T07:50:16.528Z,101829.87
2018-10-19T07:52:45.348Z,101836.41
2018-10-19T07:55:14.044Z,101832.02
2018-10-19T07:57:42.573Z,101839.90
2018-10-19T08:00:11.785Z,101833.30
2018-10-19T08:02:40.272Z,101835.06
2018-10-19T08:05:09.445Z,101836.84
2018-10-19T08:07:44.531Z,101841.64
2018-10-19T08:10:13.219Z,101852.15
2018-10-19T08:12:41.826Z,101845.55
2018-10-19T08:15:10.814Z,101847.71
2018-10-19T08:17:39.517Z,101856.87
2018-10-19T08:20:08.543Z,101859.86
2018-10-19T08:22:37.383Z,101860.75
2018-10-19T08:25:07.176Z,101855.42
2018-10-19T08:27:36.417Z,101855.80
2018-10-19T08:30:05.111Z,101864.08
2018-10-19T08:32:33.767Z,101863.15
2018-10-19T08:35:02.479Z,101864.45
2018-10-19T08:37:32.957Z,101856.05
2018-10-19T08:40:01.583Z,101859.96
2018-10-19T08:42:30.108Z,101866.50
2018-10-19T08:44:59.521Z,101867.37
2018-10-19T08:47:28.251Z,101868.19
2018-10-19T08:49:56.865Z,101869.89
2018-10-19T08:52:26.242Z,101876.42
2018-10-19T08:54:54.961Z,101875.06
2018-10-19T08:57:23.922Z,101870.27
2018-10-19T08:59:53.306Z,101865.90
2018-10-19T09:02:22.220Z,101871.63
2018-10-19T09:04:50.832Z,101867.67
2018-10-19T09:07:19.780Z,101866.79
2018-10-19T09:09:48.541Z,101863.73
2018-10-19T09:12:17.136Z,101867.16
2018-10-19T09:14:53.668Z,101870.59
2018-10-19T09:17:22.759Z,101867.82
2018-10-19T09:19:52.321Z,101860.66
2018-10-19T09:22:21.761Z,101850.97
2018-10-19T09:24:51.570Z,101851.29
2018-10-19T09:27:21.536Z,101848.06
2018-10-19T09:29:50.148Z,101847.00
2018-10-19T09:32:18.851Z,101843.36
2018-10-19T09:34:47.809Z,101840.55
2018-10-19T09:37:16.392Z,101838.91
2018-10-19T09:39:45.781Z,101835.45
2018-10-19T09:42:14.454Z,101839.05
2018-10-19T09:44:43.153Z,101839.66
2018-10-19T09:47:11.732Z,101837.20
2018-10-19T09:49:40.363Z,101829.98
2018-10-19T09:52:09.613Z,101825.38
2018-10-19T09:54:38.408Z,101822.55
2018-10-19T09:57:06.964Z,101827.11
2018-10-19T09:59:35.500Z,101820.75
2018-10-19T10:02:04.194Z,101819.83
2018-10-19T10:04:32.894Z,101824.50
2018-10-19T10:07:01.670Z,101813.27
2018-10-19T10:09:30.601Z,101823.07
2018-10-19T10:11:59.148Z,101820.52
2018-10-19T10:14:27.819Z,101822.42
2018-10-19T10:16:56.519Z,101815.52
2018-10-19T10:19:25.146Z,101807.56
2018-10-19T10:21:54.277Z,101814.08
2018-10-19T10:24:22.917Z,101816.13
2018-10-19T10:26:51.616Z,101812.52
2018-10-19T10:29:20.921Z,101806.21
2018-10-19T10:31:49.480Z,101801.22
2018-10-19T10:34:18.336Z,101806.23
2018-10-19T10:36:46.787Z,101814.08
2018-10-19T10:39:16.245Z,101813.73
2018-10-19T10:41:44.954Z,101808.83
2018-10-19T10:44:13.501Z,101804.31
2018-10-19T10:46:42.340Z,101804.15
2018-10-19T10:49:10.926Z,101797.45
2018-10-19T10:51:39.697Z,101793.92
2018-10-19T10:54:08.584Z,101789.84
2018-10-19T10:56:37.302Z,101792.78
2018-10-19T10:59:06.219Z,101791.30
2018-10-19T11:01:35.013Z,101788.23
2018-10-19T11:04:03.949Z,101794.70
2018-10-19T11:06:32.553Z,101798.23
2018-10-19T11:09:01.366Z,101789.34
2018-10-19T11:11:35.943Z,101780.86
2018-10-19T11:14:05.005Z,101780.05
2018-10-19T11:16:33.617Z,101777.88
2018-10-19T11:19:03.133Z,101782.40
2018-10-19T11:21:32.737Z,101775.12
2018-10-19T11:24:01.557Z,101772.16
2018-10-19T11:26:30.421Z,101768.93
2018-10-19T11:28:59.961Z,101772.05
2018-10-19T11:31:29.127Z,101760.39
2018-10-19T11:33:57.887Z,101759.81
2018-10-19T11:36:26.692Z,101761.55
2018-10-19T11:38:55.201Z,101766.92
2018-10-19T11:41:23.904Z,101766.76
2018-10-19T11:43:52.493Z,101767.11
2018-10-19T11:46:21.228Z,101768.86
2018-10-19T11:48:50.359Z,101768.73
2018-10-19T11:51:19.037Z,101769.59
2018-10-19T11:53:48.006Z,101760.04
2018-10-19T11:56:16.645Z,101759.61
2018-10-19T11:58:45.289Z,101762.08
2018-10-19T12:01:14.033Z,101759.52
2018-10-19T12:03:42.767Z,101755.11
2018-10-19T12:06:11.275Z,101757.89
2018-10-19T12:08:40.307Z,101755.16
2018-10-19T12:11:09.084Z,101757.68
2018-10-19T12:13:37.868Z,101752.31
2018-10-19T12:16:07.320Z,101755.05
2018-10-19T12:18:36.015Z,101752.47
2018-10-19T12:21:05.089Z,101751.48
2018-10-19T12:23:33.879Z,101751.41
2018-10-19T12:26:02.545Z,101743.02
2018-10-19T12:28:31.089Z,101739.81
2018-10-19T12:30:59.935Z,101736.77
2018-10-19T12:33:28.561Z,101726.20
2018-10-19T12:35:57.494Z,101730.97
2018-10-19T12:38:26.861Z,101734.72
2018-10-19T12:40:55.718Z,101725.36
2018-10-19T12:43:24.198Z,101733.11
2018-10-19T12:46:34.877Z,101723.28
2018-10-19T12:49:03.424Z,101738.59
2018-10-19T12:51:32.212Z,101740.05
2018-10-19T12:54:00.933Z,101733.77
2018-10-19T12:56:29.802Z,101732.55
2018-10-19T12:58:58.560Z,101733.62
2018-10-19T13:01:28.395Z,101726.95
2018-10-19T13:03:57.791Z,101730.55
2018-10-19T13:06:26.463Z,101727.14
2018-10-19T13:08:55.462Z,101729.17
2018-10-19T13:11:24.367Z,101734.15
2018-10-19T13:13:54.192Z,101731.85
2018-10-19T13:16:23.156Z,101730.81
2018-10-19T13:18:52.093Z,101721.76
2018-10-19T13:21:20.988Z,101710.34
2018-10-19T13:23:50.378Z,101722.16
2018-10-19T13:26:19.096Z,101718.95
2018-10-19T13:28:47.989Z,101713.84
2018-10-19T13:31:17.039Z,101718.67
2018-10-19T13:33:45.870Z,101715.69
2018-10-19T13:36:14.685Z,101710.09
2018-10-19T13:38:43.216Z,101700.16
2018-10-19T13:41:12.103Z,101699.08
2018-10-19T13:43:41.709Z,101693.35
2018-10-19T13:46:10.484Z,101695.02
2018-10-19T13:48:39.643Z,101695.37
2018-10-19T13:51:08.343Z,101698.70
2018-10-19T13:53:37.059Z,101695.91
2018-10-19T13:56:05.640Z,101689.83
2018-10-19T13:58:34.346Z,101692.72
2018-10-19T14:01:02.895Z,101692.39
2018-10-19T14:03:31.728Z,101695.56
2018-10-19T14:06:00.968Z,101697.55
2018-10-19T14:08:30.211Z,101693.51
2018-10-19T14:10:58.849Z,101697.48
2018-10-19T14:13:27.846Z,101702.06
2018-10-19T14:15:56.524Z,101695.10
2018-10-19T14:18:25.537Z,101693.70
2018-10-19T14:20:54.381Z,101699.05
2018-10-19T14:23:23.690Z,101695.47
2018-10-19T14:25:52.885Z,101694.94
2018-10-19T14:28:21.702Z,101690.37
2018-10-19T14:30:51.096Z,101689.64
2018-10-19T14:33:19.924Z,101696.93
2018-10-19T14:35:48.553Z,101690.38
2018-10-19T14:38:17.886Z,101693.64
2018-10-19T14:40:46.889Z,101690.63
2018-10-19T14:43:16.419Z,101692.19
2018-10-19T14:45:45.908Z,101685.84
2018-10-19T14:48:17.929Z,101679.05
2018-10-19T14:50:46.692Z,101691.35
2018-10-19T14:53:15.755Z,101692.46
2018-10-19T14:55:44.645Z,101693.46
2018-10-19T14:58:14.204Z,101689.05
2018-10-19T15:00:48.251Z,101698.86
2018-10-19T15:03:17.014Z,101688.17
2018-10-19T15:05:45.834Z,101696.20
2018-10-19T15:08:15.089Z,101705.44
2018-10-19T15:10:44.287Z,101708.50
2018-10-19T15:13:12.589Z,101710.64
2018-10-19T15:15:41.281Z,101708.16
2018-10-19T15:18:10.675Z,101712.13
2018-10-19T15:20:39.573Z,101711.67
2018-10-19T15:23:08.361Z,101712.00
2018-10-19T15:25:37.056Z,101709.59
2018-10-19T15:28:05.595Z,101708.02
2018-10-19T15:30:34.318Z,101709.72
2018-10-19T15:33:02.928Z,101716.84
2018-10-19T15:35:31.432Z,101722.78
2018-10-19T15:38:00.139Z,101726.72
2018-10-19T15:40:28.956Z,101724.11
2018-10-19T15:42:57.777Z,101730.87
2018-10-19T15:45:26.678Z,101732.48
2018-10-19T15:47:55.364Z,101731.30
2018-10-19T15:50:24.395Z,101738.36
2018-10-19T15:52:53.630Z,101744.62
2018-10-19T15:55:22.149Z,101753.57
2018-10-19T15:57:50.889Z,101754.16
2018-10-19T16:00:19.887Z,101745.53
2018-10-19T16:02:48.955Z,101749.83
2018-10-19T16:05:17.689Z,101741.08
2018-10-19T16:07:46.396Z,101741.44
2018-10-19T16:10:14.997Z,101744.81
2018-10-19T16:12:43.790Z,101746.11
2018-10-19T16:15:12.511Z,101743.49
2018-10-19T16:17:41.163Z,101743.58
2018-10-19T16:20:10.933Z,101748.98
2018-10-19T16:22:39.710Z,101745.31
2018-10-19T16:25:08.804Z,101746.30
2018-10-19T16:27:39.131Z,101751.61
2018-10-19T16:30:09.142Z,101757.97
2018-10-19T16:32:39.322Z,101748.95
2018-10-19T16:35:08.389Z,101752.42
2018-10-19T16:37:37.756Z,101750.23
2018-10-19T16:40:07.571Z,101752.81
2018-10-19T16:42:36.373Z,101750.69
2018-10-19T16:45:05.943Z,101757.37
2018-10-19T16:47:35.715Z,101750.66
2018-10-19T16:50:04.563Z,101755.28
2018-10-19T16:52:33.288Z,101750.84
2018-10-19T16:55:01.796Z,101755.63
2018-10-19T16:57:30.597Z,101755.17
2018-10-19T16:59:59.304Z,101761.72
2018-10-19T17:02:28.021Z,101763.50
2018-10-19T17:04:57.076Z,101769.64
2018-10-19T17:07:25.512Z,101774.98
2018-10-19T17:09:54.147Z,101782.53
2018-10-19T17:12:23.205Z,101782.04
2018-10-19T17:14:51.690Z,101794.31
2018-10-19T17:17:20.402Z,101792.56
2018-10-19T17:19:49.145Z,101796.98
2018-10-19T17:42:25.922Z,101845.61
2018-10-19T17:44:55.165Z,101848.83
2018-10-19T17:47:24.074Z,101848.07
2018-10-19T17:49:53.313Z,101849.86
2018-10-19T17:52:21.818Z,101857.30
2018-10-19T17:54:50.621Z,101860.91
2018-10-19T17:57:19.263Z,101863.56
2018-10-19T17:59:48.036Z,101868.08
2018-10-19T18:02:16.929Z,101871.70
2018-10-19T18:04:46.273Z,101865.16
2018-10-19T18:07:15.096Z,101872.11
2018-10-19T18:09:48.073Z,101877.37
2018-10-19T18:12:16.666Z,101871.63
2018-10-19T18:14:48.423Z,101876.06
2018-10-19T18:17:17.174Z,101886.20
2018-10-19T18:19:45.905Z,101881.88
2018-10-19T18:22:15.047Z,101883.22
2018-10-19T18:24:43.284Z,101884.18
2018-10-19T18:27:11.980Z,101902.34
2018-10-19T18:29:40.477Z,101895.13
2018-10-19T18:32:09.423Z,101901.95
2018-10-19T18:34:38.068Z,101898.89
2018-10-19T18:37:07.323Z,101900.16
2018-10-19T18:39:36.019Z,101898.42
2018-10-19T18:42:04.671Z,101901.55
2018-10-19T18:44:33.060Z,101902.02
2018-10-19T18:47:01.848Z,101902.07
2018-10-19T18:49:30.366Z,101907.34
2018-10-19T18:51:59.012Z,101909.19
2018-10-19T18:54:27.689Z,101913.59
2018-10-19T18:56:56.302Z,101911.48
2018-10-19T18:59:24.841Z,101915.50
2018-10-19T19:01:53.591Z,101912.49
2018-10-19T19:04:22.810Z,101916.59
2018-10-19T19:06:52.017Z,101913.59
2018-10-19T19:09:20.683Z,101909.27
2018-10-19T19:11:49.650Z,101903.95
2018-10-19T19:14:18.284Z,101911.39
2018-10-19T19:16:46.888Z,101908.84
2018-10-19T19:19:15.461Z,101919.38
2018-10-19T19:21:44.720Z,101918.97
2018-10-19T19:25:22.369Z,101921.73
2018-10-19T19:27:51.073Z,101915.23
2018-10-19T19:30:19.781Z,101917.92
2018-10-19T19:32:54.154Z,101909.61
2018-10-19T19:35:22.952Z,101913.98
2018-10-19T19:37:51.902Z,101928.92
2018-10-19T19:40:20.625Z,101929.86
2018-10-19T19:42:51.412Z,101933.34
2018-10-19T19:45:20.094Z,101934.31
2018-10-19T19:47:53.841Z,101939.58
2018-10-19T19:50:23.227Z,101940.89
2018-10-19T19:52:51.982Z,101933.88
2018-10-19T19:55:20.594Z,101931.72
2018-10-19T19:57:49.270Z,101936.17
2018-10-19T20:00:17.933Z,101942.32
2018-10-19T20:02:46.432Z,101943.60
2018-10-19T20:05:15.505Z,101923.88
2018-10-19T20:07:44.280Z,101929.13
2018-10-19T20:10:12.772Z,101926.50
2018-10-19T20:12:41.351Z,101926.96
2018-10-19T20:15:10.648Z,101933.55
2018-10-19T20:17:39.455Z,101931.87
2018-10-19T20:20:09.853Z,101928.01
2018-10-19T20:22:39.001Z,101937.67
2018-10-19T20:25:09.729Z,101945.56
2018-10-19T20:27:39.142Z,101952.17
2018-10-19T20:30:10.161Z,101958.35
2018-10-19T20:32:39.300Z,101951.87
2018-10-19T20:35:07.844Z,101953.64
2018-10-19T20:37:36.566Z,101954.64
2018-10-19T20:40:05.417Z,101959.05
2018-10-19T20:42:34.257Z,101961.64
2018-10-19T20:45:02.879Z,101958.10
2018-10-19T20:47:31.516Z,101958.53
2018-10-19T20:50:00.249Z,101958.53
2018-10-19T20:52:29.686Z,101966.90
2018-10-19T20:54:58.329Z,101974.43
2018-10-19T20:57:26.841Z,101974.06
2018-10-19T20:59:55.360Z,101981.55
2018-10-19T21:02:24.109Z,101982.45
2018-10-19T21:04:52.562Z,101982.50
2018-10-19T21:07:21.140Z,101977.27
2018-10-19T21:09:49.609Z,101976.36
2018-10-19T21:12:18.266Z,101975.47
2018-10-19T21:14:46.849Z,101982.91
2018-10-19T21:17:16.033Z,101990.40
2018-10-19T21:19:44.848Z,101995.66
2018-10-19T21:22:13.401Z,101988.22
2018-10-19T21:24:41.969Z,101986.92
2018-10-19T21:27:10.744Z,102003.12
2018-10-19T21:29:39.206Z,102001.40
2018-10-19T21:32:08.102Z,101999.22
2018-10-19T21:34:37.239Z,101994.84
2018-10-19T21:37:05.861Z,101999.66
2018-10-19T21:39:34.381Z,102000.11
2018-10-19T21:42:02.892Z,102009.30
2018-10-19T21:44:31.464Z,102005.37
2018-10-19T21:47:00.336Z,102004.91
2018-10-19T21:49:29.012Z,102006.23
2018-10-19T21:51:58.103Z,102000.98
2018-10-19T21:54:26.718Z,102004.08
2018-10-19T21:56:55.271Z,102005.41
2018-10-19T21:59:23.773Z,101997.53
2018-10-19T22:01:52.309Z,101997.97
2018-10-19T22:04:20.762Z,101991.41
2018-10-19T22:06:49.339Z,101996.22
2018-10-19T22:09:17.896Z,102006.27
2018-10-19T22:11:47.124Z,101997.96
2018-10-19T22:14:15.912Z,102012.81
2018-10-19T22:16:44.678Z,102030.31
2018-10-19T22:19:13.281Z,102026.80
2018-10-19T22:21:41.949Z,102024.59
2018-10-19T22:24:11.125Z,102038.62
2018-10-19T22:26:40.296Z,102037.28
2018-10-19T22:29:09.127Z,102034.23
2018-10-19T22:31:37.692Z,102031.16
2018-10-19T22:34:06.333Z,102028.98
2018-10-19T22:36:36.107Z,102023.77
2018-10-19T22:39:05.527Z,102020.70
2018-10-19T22:41:34.062Z,102036.00
2018-10-19T22:44:03.801Z,102041.67
2018-10-19T22:46:32.418Z,102044.72
2018-10-19T22:49:01.291Z,102040.81
2018-10-19T22:51:29.926Z,102046.03
2018-10-19T22:53:58.448Z,102056.97
2018-10-19T22:56:26.903Z,102059.55
2018-10-19T22:58:55.548Z,102057.75
2018-10-19T23:01:24.708Z,102055.55
2018-10-19T23:03:54.055Z,102042.89
2018-10-19T23:06:22.644Z,102060.39
2018-10-19T23:08:51.328Z,102068.69
2018-10-19T23:11:19.835Z,102076.55
2018-10-19T23:13:48.935Z,102072.58
2018-10-19T23:16:17.604Z,102069.12
2018-10-19T23:18:46.334Z,102072.15
2018-10-19T23:21:14.931Z,102068.66
2018-10-19T23:23:43.448Z,102072.59
2018-10-19T23:26:11.937Z,102069.11
2018-10-19T23:28:40.712Z,102066.48
2018-10-19T23:31:09.491Z,102065.61
2018-10-19T23:33:38.385Z,102067.37
2018-10-19T23:36:06.993Z,102073.47
2018-10-19T23:38:35.961Z,102077.41
2018-10-19T23:41:04.477Z,102077.41
2018-10-19T23:43:33.782Z,102081.75
2018-10-19T23:46:02.268Z,102071.73
2018-10-19T23:48:30.854Z,102075.64
2018-10-19T23:50:59.371Z,102065.59
2018-10-19T23:53:27.807Z,102061.65
